Time;durP1;ratioP1;P1;durP2;ratioP2;P2;SDS_P1;SDS_P2;PMS_P1;PMS_P2;Temp;Humidity;BMP_temperature;BMP_pressure;BME280_temperature;BME280_humidity;BME280_pressure;Samples;Min_cycle;Max_cycle;Signal;HPM_P1;HPM_P2
2022/10/31 00:02:03;;;;;;;7.60;3.58;;;;;;;14.14;81.17;100826.03;5058285;28;20421;-79
2022/10/31 00:04:28;;;;;;;5.90;3.80;;;;;;;14.15;81.08;100827.69;5059566;28;20872;-79
2022/10/31 00:06:53;;;;;;;7.00;3.30;;;;;;;14.13;80.72;100822.47;5061848;28;20801;-79
2022/10/31 00:09:19;;;;;;;6.17;3.30;;;;;;;14.11;80.60;100829.28;5057773;28;20400;-78
2022/10/31 00:11:44;;;;;;;11.80;3.93;;;;;;;14.06;80.57;100821.06;5040211;28;20396;-79
2022/10/31 00:14:09;;;;;;;8.05;2.97;;;;;;;14.03;80.20;100823.22;5058224;28;20455;-79
2022/10/31 00:16:35;;;;;;;10.93;3.83;;;;;;;13.99;80.08;100829.47;5061907;28;20446;-79
2022/10/31 00:19:03;;;;;;;5.50;3.03;;;;;;;13.94;80.41;100827.50;5042219;28;20411;-79
2022/10/31 00:21:30;;;;;;;8.60;3.13;;;;;;;13.93;80.22;100822.28;5058010;28;20404;-78
2022/10/31 00:23:57;;;;;;;10.05;3.88;;;;;;;13.92;80.41;100821.50;5057929;28;20401;-79
2022/10/31 00:26:22;;;;;;;6.30;3.97;;;;;;;13.93;80.23;100814.94;5043926;28;20827;-79
2022/10/31 00:28:48;;;;;;;8.60;4.30;;;;;;;13.95;80.31;100822.88;5035185;28;20419;-78
2022/10/31 00:31:14;;;;;;;6.30;3.83;;;;;;;13.94;80.45;100815.78;5053463;28;20407;-78
2022/10/31 00:33:40;;;;;;;11.43;4.63;;;;;;;13.93;80.38;100823.13;5053111;28;20873;-78
2022/10/31 00:36:07;;;;;;;9.48;5.22;;;;;;;13.92;80.75;100818.78;5061241;28;20415;-79
2022/10/31 00:38:33;;;;;;;13.75;4.63;;;;;;;13.95;81.00;100810.06;5062525;28;20411;-78
2022/10/31 00:40:58;;;;;;;9.90;4.90;;;;;;;13.97;80.74;100815.25;5061080;28;20547;-78
2022/10/31 00:43:24;;;;;;;10.88;4.68;;;;;;;13.96;81.03;100813.63;5061743;28;20408;-79
2022/10/31 00:45:49;;;;;;;6.60;4.93;;;;;;;13.98;80.70;100819.63;5063369;28;20436;-79
2022/10/31 00:48:14;;;;;;;6.80;4.00;;;;;;;13.99;81.30;100821.28;5064257;28;20419;-78
2022/10/31 00:50:40;;;;;;;11.97;4.50;;;;;;;13.99;80.96;100816.63;5062654;28;20879;-79
2022/10/31 00:53:06;;;;;;;5.72;4.10;;;;;;;13.99;81.08;100821.28;5061446;28;20396;-79
2022/10/31 00:55:31;;;;;;;8.88;4.45;;;;;;;13.96;81.31;100819.88;5043971;28;20394;-79
2022/10/31 00:57:57;;;;;;;5.27;3.50;;;;;;;13.90;81.00;100820.91;5059700;28;20490;-79
2022/10/31 01:00:22;;;;;;;5.85;2.72;;;;;;;13.84;80.90;100818.41;5051520;28;20382;-78
2022/10/31 01:02:48;;;;;;;12.05;3.15;;;;;;;13.74;80.60;100821.84;5061218;28;20473;-78
2022/10/31 01:05:13;;;;;;;5.77;2.73;;;;;;;13.64;80.71;100820.91;5061180;28;20428;-79
2022/10/31 01:07:40;;;;;;;6.03;2.65;;;;;;;13.59;80.38;100823.59;5061615;28;20487;-79
2022/10/31 01:10:06;;;;;;;8.17;2.90;;;;;;;13.55;80.03;100825.16;5049650;28;20841;-78
2022/10/31 01:12:44;;;;;;;7.45;2.72;;;;;;;13.53;79.83;100830.88;5066403;28;20403;-79
2022/10/31 01:15:11;;;;;;;9.30;3.25;;;;;;;13.50;79.79;100826.75;5044296;28;20485;-79
2022/10/31 01:17:37;;;;;;;9.45;3.25;;;;;;;13.50;79.54;100820.50;5068956;28;20425;-79
2022/10/31 01:20:04;;;;;;;10.63;3.50;;;;;;;13.50;79.48;100825.94;5054274;28;20804;-79
2022/10/31 01:22:29;;;;;;;10.68;3.30;;;;;;;13.48;79.43;100818.03;5054109;28;20385;-79
2022/10/31 01:24:54;;;;;;;6.20;2.93;;;;;;;13.46;79.16;100824.81;5054298;28;20397;-78
2022/10/31 01:27:19;;;;;;;6.47;2.90;;;;;;;13.45;79.41;100818.53;5054057;28;20865;-78
2022/10/31 01:29:45;;;;;;;12.20;3.07;;;;;;;13.43;79.01;100826.16;5036662;28;20489;-79
2022/10/31 01:32:10;;;;;;;7.30;3.30;;;;;;;13.43;79.29;100820.72;5053895;28;20386;-78
2022/10/31 01:34:35;;;;;;;8.15;3.10;;;;;;;13.43;79.37;100815.25;5053837;28;20382;-78
2022/10/31 01:37:01;;;;;;;9.73;3.23;;;;;;;13.44;79.26;100827.78;5053889;28;20480;-78
2022/10/31 01:39:26;;;;;;;8.80;3.03;;;;;;;13.44;78.96;100827.78;5037871;28;20885;-78
2022/10/31 01:41:53;;;;;;;6.00;2.87;;;;;;;13.41;79.15;100819.28;5052600;28;20424;-78
2022/10/31 01:44:18;;;;;;;5.93;2.80;;;;;;;13.38;78.93;100819.81;5053894;28;20389;-78
2022/10/31 01:47:02;;;;;;;5.97;3.00;;;;;;;13.37;79.02;100823.63;5053516;28;20451;-78
2022/10/31 01:49:35;;;;;;;13.75;3.13;;;;;;;13.33;79.10;100826.03;5051993;28;20439;-78
2022/10/31 01:52:06;;;;;;;7.72;3.10;;;;;;;13.34;79.43;100826.81;5050585;28;20779;-78
2022/10/31 01:54:37;;;;;;;4.85;3.20;;;;;;;13.35;79.34;100823.88;5035738;28;20904;-79
2022/10/31 01:57:05;;;;;;;9.23;3.25;;;;;;;13.35;79.09;100812.97;5035724;28;20397;-78
2022/10/31 01:59:37;;;;;;;6.28;3.88;;;;;;;13.36;79.20;100822.78;5023316;28;20410;-79
2022/10/31 02:02:03;;;;;;;9.85;3.65;;;;;;;13.35;79.22;100821.13;5028552;28;20426;-79
2022/10/31 02:04:29;;;;;;;8.37;3.57;;;;;;;13.36;79.03;100824.69;5044366;28;20468;-78
2022/10/31 02:07:09;;;;;;;6.03;3.35;;;;;;;13.37;79.25;100818.97;5053373;28;20404;-79
2022/10/31 02:09:36;;;;;;;8.10;3.30;;;;;;;13.38;79.29;100817.06;5030586;28;20413;-79
2022/10/31 02:12:02;;;;;;;9.52;3.25;;;;;;;13.41;79.38;100811.13;5053237;28;20408;-79
2022/10/31 02:14:30;;;;;;;9.43;3.20;;;;;;;13.41;79.56;100808.41;5053158;28;20389;-78
2022/10/31 02:16:55;;;;;;;7.85;3.60;;;;;;;13.41;79.51;100808.41;5053131;28;20447;-79
2022/10/31 02:19:33;;;;;;;9.83;3.40;;;;;;;13.37;79.38;100807.28;5043124;28;20405;-79
2022/10/31 02:22:13;;;;;;;6.03;3.15;;;;;;;13.31;79.59;100811.00;5053119;28;20393;-78
2022/10/31 02:25:03;;;;;;;9.05;2.50;;;;;;;13.25;79.13;100806.59;5053106;28;20394;-78
2022/10/31 02:28:09;;;;;;;6.63;2.90;;;;;;;13.19;79.14;100813.03;5038973;28;20431;-78
2022/10/31 02:30:53;;;;;;;11.30;2.90;;;;;;;13.18;78.81;100812.22;5033626;28;20397;-79
2022/10/31 02:33:41;;;;;;;6.80;3.65;;;;;;;13.16;78.66;100811.66;5036909;28;20463;-79
2022/10/31 02:36:25;;;;;;;8.63;3.15;;;;;;;13.12;78.81;100812.41;5052827;28;20386;-78
2022/10/31 02:39:09;;;;;;;13.02;3.50;;;;;;;13.13;78.88;100819.50;5038768;28;20419;-79
2022/10/31 02:41:39;;;;;;;10.85;3.13;;;;;;;13.14;78.77;100818.44;5052583;28;20398;-78
2022/10/31 02:44:10;;;;;;;9.33;3.63;;;;;;;13.12;78.52;100806.97;5046071;28;20495;-79
2022/10/31 02:46:49;;;;;;;11.43;3.00;;;;;;;13.12;78.85;100809.69;5032335;28;20544;-79
2022/10/31 02:49:59;;;;;;;15.05;3.50;;;;;;;13.12;78.60;100813.22;5052485;28;20463;-79
2022/10/31 02:52:28;;;;;;;7.82;3.20;;;;;;;13.11;78.34;100810.75;5052477;28;20519;-79
2022/10/31 02:54:54;;;;;;;11.50;3.78;;;;;;;13.09;78.44;100805.56;5045705;28;20422;-79
2022/10/31 02:57:30;;;;;;;10.70;4.00;;;;;;;13.13;78.71;100811.34;5062694;28;20409;-78
2022/10/31 03:00:01;;;;;;;7.90;3.35;;;;;;;13.14;78.99;100802.91;5033816;28;20397;-78
2022/10/31 03:02:34;;;;;;;10.93;3.53;;;;;;;13.18;79.04;100803.22;5018385;28;20490;-79
2022/10/31 03:05:18;;;;;;;9.00;3.30;;;;;;;13.18;78.91;100806.78;5059912;28;20410;-79
2022/10/31 03:08:02;;;;;;;10.88;3.15;;;;;;;13.16;78.99;100795.31;5052163;28;20555;-79
2022/10/31 03:10:54;;;;;;;7.50;3.55;;;;;;;13.11;79.03;100795.25;5067536;28;20405;-79
2022/10/31 03:13:41;;;;;;;5.20;3.15;;;;;;;13.09;78.96;100796.59;5052195;28;20417;-79
2022/10/31 03:16:18;;;;;;;8.45;3.28;;;;;;;13.09;79.33;100799.31;5049904;28;20462;-79
2022/10/31 03:18:52;;;;;;;11.20;3.43;;;;;;;13.08;79.32;100803.06;5027357;28;20409;-79
2022/10/31 03:21:30;;;;;;;7.97;2.92;;;;;;;13.05;79.42;100798.97;5044019;28;20725;-79
2022/10/31 03:23:57;;;;;;;10.60;2.97;;;;;;;13.05;79.64;100809.84;5049668;28;20414;-79
2022/10/31 03:26:23;;;;;;;8.73;2.65;;;;;;;13.04;79.29;100801.94;5052103;28;20393;-79
2022/10/31 03:28:57;;;;;;;7.15;3.10;;;;;;;13.01;79.73;100804.06;5051908;28;20934;-78
2022/10/31 03:31:28;;;;;;;9.55;2.90;;;;;;;12.99;79.44;100810.84;5067440;28;20405;-78
2022/10/31 03:33:58;;;;;;;4.43;2.60;;;;;;;12.94;79.58;100808.09;5050972;28;20922;-79
2022/10/31 03:36:25;;;;;;;6.57;2.97;;;;;;;12.94;79.47;100808.88;5038538;28;20930;-78
2022/10/31 03:38:51;;;;;;;5.90;3.08;;;;;;;12.93;79.41;100809.97;5067190;28;20523;-78
2022/10/31 03:41:22;;;;;;;8.73;2.70;;;;;;;12.92;79.37;100807.50;5051614;28;20847;-78
2022/10/31 03:43:56;;;;;;;8.03;3.03;;;;;;;12.89;79.47;100799.84;5033790;28;20473;-78
2022/10/31 03:46:23;;;;;;;8.80;3.03;;;;;;;12.87;79.46;100796.56;5058627;28;20908;-78
2022/10/31 03:48:48;;;;;;;8.32;2.97;;;;;;;12.86;79.41;100800.34;5025575;28;20904;-79
2022/10/31 03:51:22;;;;;;;11.40;3.10;;;;;;;12.87;79.29;100793.84;5051640;28;20404;-78
2022/10/31 03:53:57;;;;;;;8.23;2.90;;;;;;;12.89;79.21;100803.38;5035953;28;20481;-78
2022/10/31 03:56:43;;;;;;;10.20;3.15;;;;;;;12.92;79.33;100797.44;5042071;28;20467;-78
2022/10/31 03:59:34;;;;;;;10.20;3.53;;;;;;;12.89;79.41;100805.28;5051616;28;20390;-79
2022/10/31 04:02:05;;;;;;;11.10;3.53;;;;;;;12.89;79.38;100805.28;5038448;28;20645;-78
2022/10/31 04:04:33;;;;;;;4.88;3.33;;;;;;;12.86;79.69;100801.16;5032762;28;20405;-79
2022/10/31 04:07:01;;;;;;;4.90;2.80;;;;;;;12.83;79.59;100800.84;5051384;28;20484;-79
2022/10/31 04:09:28;;;;;;;7.60;3.70;;;;;;;12.85;79.37;100795.97;5051492;28;20760;-79
2022/10/31 04:11:56;;;;;;;8.25;3.60;;;;;;;12.84;79.57;100797.84;5055503;28;20436;-79
2022/10/31 04:14:25;;;;;;;12.57;3.25;;;;;;;12.84;79.39;100792.41;5052732;28;20397;-79
2022/10/31 04:16:51;;;;;;;8.98;3.92;;;;;;;12.87;79.19;100797.38;5051200;28;20385;-79
2022/10/31 04:19:16;;;;;;;5.53;3.03;;;;;;;12.86;79.54;100792.19;5055362;28;20714;-79
2022/10/31 04:21:44;;;;;;;7.45;3.50;;;;;;;12.86;79.20;100797.63;5062982;28;20411;-79
2022/10/31 04:24:10;;;;;;;9.00;3.40;;;;;;;12.87;79.48;100799.28;5054644;28;20397;-79
2022/10/31 04:26:35;;;;;;;8.37;3.60;;;;;;;12.83;79.85;100792.69;5039450;28;20395;-79
2022/10/31 04:29:01;;;;;;;6.60;3.00;;;;;;;12.81;80.07;100798.38;5053996;28;20408;-79
2022/10/31 04:31:26;;;;;;;8.60;3.37;;;;;;;12.80;80.08;100804.06;5070484;28;20389;-79
2022/10/31 04:33:52;;;;;;;7.97;3.40;;;;;;;12.77;80.13;100793.69;5053276;28;20381;-79
2022/10/31 04:36:17;;;;;;;7.78;3.28;;;;;;;12.78;79.79;100790.72;5049317;28;20404;-79
2022/10/31 04:38:42;;;;;;;10.03;3.27;;;;;;;12.74;80.04;100786.88;5021047;28;20716;-79
2022/10/31 04:41:07;;;;;;;9.50;3.47;;;;;;;12.75;79.72;100791.22;5037012;28;20736;-79
2022/10/31 04:43:33;;;;;;;8.83;4.07;;;;;;;12.74;79.95;100789.59;5054944;28;20389;-78
2022/10/31 04:45:58;;;;;;;9.87;4.87;;;;;;;12.73;79.96;100790.66;5048097;28;20512;-78
2022/10/31 04:48:24;;;;;;;9.77;4.55;;;;;;;12.74;80.11;100788.75;5054647;28;20463;-79
2022/10/31 04:50:49;;;;;;;7.78;4.40;;;;;;;12.72;80.05;100780.00;5054854;28;20389;-79
2022/10/31 04:53:15;;;;;;;9.83;4.47;;;;;;;12.72;79.64;100788.16;5054785;28;20408;-79
2022/10/31 04:55:40;;;;;;;6.45;3.53;;;;;;;12.74;79.67;100788.75;5024663;28;20410;-79
2022/10/31 04:58:05;;;;;;;8.03;3.83;;;;;;;12.71;79.99;100792.78;5032195;28;20405;-79
2022/10/31 05:00:30;;;;;;;7.47;3.20;;;;;;;12.69;79.98;100786.78;5054663;28;20409;-79
2022/10/31 05:02:57;;;;;;;4.80;2.87;;;;;;;12.65;79.81;100784.81;5054617;28;20398;-79
2022/10/31 05:05:26;;;;;;;5.35;2.65;;;;;;;12.57;79.82;100779.81;5051571;28;20424;-79
2022/10/31 05:07:52;;;;;;;6.82;2.78;;;;;;;12.49;79.56;100772.91;5036948;28;20397;-79
2022/10/31 05:10:20;;;;;;;6.63;2.77;;;;;;;12.46;79.26;100776.94;5054449;28;20388;-79
2022/10/31 05:12:51;;;;;;;5.10;2.67;;;;;;;12.38;79.57;100780.06;5054371;28;20949;-79
2022/10/31 05:15:17;;;;;;;5.70;2.33;;;;;;;12.34;79.13;100778.94;5054396;28;20447;-79
2022/10/31 05:17:43;;;;;;;5.37;2.23;;;;;;;12.32;78.51;100778.34;5039897;28;20423;-78
2022/10/31 05:20:10;;;;;;;4.57;2.90;;;;;;;12.29;78.95;100776.13;5053180;28;20451;-78
2022/10/31 05:22:35;;;;;;;17.38;3.38;;;;;;;12.27;78.82;100767.41;5053553;28;20424;-79
2022/10/31 05:25:01;;;;;;;9.20;2.80;;;;;;;12.28;78.47;100766.31;5054676;28;20386;-78
2022/10/31 05:27:26;;;;;;;6.33;2.90;;;;;;;12.27;78.46;100761.97;5054165;28;20439;-79
2022/10/31 05:29:51;;;;;;;12.60;3.33;;;;;;;12.27;78.65;100772.84;5054056;28;20570;-79
2022/10/31 05:32:17;;;;;;;8.30;3.23;;;;;;;12.25;78.73;100769.53;5039819;28;20666;-79
2022/10/31 05:34:42;;;;;;;4.40;2.70;;;;;;;12.26;78.58;100768.47;5043277;28;20476;-78
2022/10/31 05:37:07;;;;;;;6.40;3.00;;;;;;;12.26;78.70;100773.09;5059615;28;20392;-78
2022/10/31 05:39:33;;;;;;;9.73;3.30;;;;;;;12.26;78.94;100764.94;5053936;28;20398;-79
2022/10/31 05:41:58;;;;;;;5.60;2.73;;;;;;;12.28;78.86;100768.25;5039540;28;20539;-79
2022/10/31 05:44:23;;;;;;;6.93;3.27;;;;;;;12.27;78.69;100770.13;5053764;28;20895;-79
2022/10/31 05:46:48;;;;;;;5.13;3.50;;;;;;;12.26;79.16;100760.31;5052955;28;20562;-79
2022/10/31 05:49:14;;;;;;;3.70;3.30;;;;;;;12.25;79.03;100766.03;5038374;28;20415;-79
2022/10/31 05:51:39;;;;;;;8.27;3.80;;;;;;;12.26;79.04;100773.09;5052889;28;20396;-79
2022/10/31 05:54:04;;;;;;;5.77;2.77;;;;;;;12.24;79.37;100767.09;5035784;28;20737;-79
2022/10/31 05:56:30;;;;;;;5.50;3.35;;;;;;;12.24;79.45;100762.47;5053647;28;20393;-79
2022/10/31 05:58:55;;;;;;;6.17;3.37;;;;;;;12.27;79.13;100758.44;5053479;28;20398;-79
2022/10/31 06:01:23;;;;;;;8.45;3.88;;;;;;;12.30;79.26;100766.09;5033987;28;20405;-79
2022/10/31 06:03:48;;;;;;;8.98;3.47;;;;;;;12.30;79.02;100763.38;5020589;28;20470;-79
2022/10/31 06:06:13;;;;;;;7.47;3.97;;;;;;;12.29;78.92;100764.44;5043824;28;20481;-79
2022/10/31 06:08:40;;;;;;;4.57;3.87;;;;;;;12.30;79.05;100766.91;5046666;28;20846;-79
2022/10/31 06:11:05;;;;;;;8.88;3.33;;;;;;;12.32;79.24;100766.66;5053369;28;20397;-79
2022/10/31 06:13:30;;;;;;;8.67;3.47;;;;;;;12.35;78.90;100763.44;5053190;28;20413;-79
2022/10/31 06:15:55;;;;;;;5.80;3.10;;;;;;;12.34;79.16;100773.50;5055485;28;21114;-78
2022/10/31 06:18:21;;;;;;;9.30;3.60;;;;;;;12.35;79.28;100777.84;5046280;28;20392;-79
2022/10/31 06:20:46;;;;;;;8.43;4.37;;;;;;;12.30;79.45;100774.25;5052801;28;20741;-78
2022/10/31 06:23:11;;;;;;;7.18;4.05;;;;;;;12.28;79.53;100769.03;5049397;28;20410;-78
2022/10/31 06:25:37;;;;;;;8.03;4.23;;;;;;;12.37;79.44;100773.00;5063848;28;20405;-78
2022/10/31 06:28:02;;;;;;;10.77;4.27;;;;;;;12.42;79.59;100772.25;5052797;28;20406;-78
2022/10/31 06:30:27;;;;;;;7.90;3.77;;;;;;;12.45;79.32;100769.03;5051716;28;20420;-78
2022/10/31 06:32:53;;;;;;;7.97;3.93;;;;;;;12.49;79.53;100762.03;5046180;28;20413;-78
2022/10/31 06:35:18;;;;;;;9.80;3.53;;;;;;;12.51;79.55;100767.22;5057928;28;20401;-78
2022/10/31 06:37:51;;;;;;;7.05;3.67;;;;;;;12.48;79.44;100766.63;5052819;28;20744;-78
2022/10/31 06:40:16;;;;;;;7.18;3.47;;;;;;;12.44;79.50;100764.69;5056735;28;20915;-80
2022/10/31 06:42:41;;;;;;;8.05;3.13;;;;;;;12.44;79.17;100775.56;5034990;28;20406;-80
2022/10/31 06:45:07;;;;;;;9.93;3.37;;;;;;;12.43;79.45;100765.75;5042920;28;20445;-79
2022/10/31 06:47:32;;;;;;;12.10;3.50;;;;;;;12.44;79.19;100767.41;5046332;28;20460;-77
2022/10/31 06:49:57;;;;;;;6.03;3.30;;;;;;;12.40;79.50;100769.78;5047783;28;20461;-78
2022/10/31 06:52:23;;;;;;;9.10;3.10;;;;;;;12.40;79.13;100771.69;5051790;28;20448;-78
2022/10/31 06:54:48;;;;;;;8.83;3.90;;;;;;;12.46;78.95;100770.69;5033971;28;20772;-80
2022/10/31 06:57:13;;;;;;;8.37;3.57;;;;;;;12.49;78.79;100779.16;5051375;28;20393;-74
2022/10/31 06:59:39;;;;;;;4.80;2.90;;;;;;;12.53;78.66;100774.03;5051490;28;20389;-76
2022/10/31 07:02:04;;;;;;;13.23;3.60;;;;;;;12.58;78.83;100781.47;5044933;28;20492;-76
2022/10/31 07:04:30;;;;;;;8.10;3.10;;;;;;;12.60;78.80;100774.69;5050801;28;20393;-76
2022/10/31 07:06:55;;;;;;;10.17;3.40;;;;;;;12.60;79.07;100776.59;5051023;28;20940;-77
2022/10/31 07:09:20;;;;;;;6.63;3.57;;;;;;;12.59;79.11;100777.66;5049569;28;20408;-77
2022/10/31 07:11:46;;;;;;;9.35;3.30;;;;;;;12.60;79.13;100774.69;5051542;28;20411;-77
2022/10/31 07:14:11;;;;;;;7.20;3.87;;;;;;;12.66;78.97;100770.16;5050254;28;20393;-76
2022/10/31 07:16:36;;;;;;;6.95;3.53;;;;;;;12.69;79.28;100766.91;5050739;28;20405;-79
2022/10/31 07:19:02;;;;;;;10.33;3.77;;;;;;;12.77;79.39;100770.03;5041634;28;20405;-78
2022/10/31 07:21:27;;;;;;;8.77;4.00;;;;;;;12.82;79.34;100761.94;5047573;28;20421;-78
2022/10/31 07:23:52;;;;;;;8.23;4.23;;;;;;;12.86;79.66;100767.69;5032887;28;20477;-79
2022/10/31 07:26:18;;;;;;;10.40;3.83;;;;;;;12.89;79.71;100778.06;5030220;28;20414;-77
2022/10/31 07:28:43;;;;;;;8.53;3.80;;;;;;;12.92;79.72;100781.13;5023635;28;20439;-76
2022/10/31 07:31:08;;;;;;;10.97;4.10;;;;;;;12.96;79.76;100778.72;5048842;28;20488;-77
2022/10/31 07:33:33;;;;;;;11.45;4.07;;;;;;;12.99;79.94;100781.75;5043446;28;20768;-78
2022/10/31 07:35:59;;;;;;;11.37;5.20;;;;;;;13.06;79.87;100778.84;5049628;28;20405;-79
2022/10/31 07:38:25;;;;;;;8.00;4.90;;;;;;;13.08;79.92;100776.69;5047195;28;20447;-77
2022/10/31 07:40:55;;;;;;;10.23;4.35;;;;;;;13.14;80.06;100785.78;5037992;28;20398;-79
2022/10/31 07:43:20;;;;;;;9.63;5.13;;;;;;;13.17;79.91;100780.63;5025615;28;20416;-78
2022/10/31 07:45:53;;;;;;;9.43;6.05;;;;;;;13.21;80.06;100789.94;5024713;28;20395;-78
2022/10/31 07:48:19;;;;;;;10.82;6.22;;;;;;;13.24;79.85;100794.03;5026754;28;20426;-78
2022/10/31 07:50:44;;;;;;;8.25;5.55;;;;;;;13.23;80.20;100785.06;5023056;28;20404;-78
2022/10/31 07:53:12;;;;;;;6.82;5.30;;;;;;;13.24;80.25;100781.25;5027364;28;20735;-77
2022/10/31 07:55:39;;;;;;;9.87;4.53;;;;;;;13.29;80.32;100786.78;5026493;28;20505;-78
2022/10/31 07:58:12;;;;;;;6.70;4.43;;;;;;;13.32;80.10;100791.72;5019636;28;20795;-77
2022/10/31 08:00:39;;;;;;;8.60;4.40;;;;;;;13.35;80.17;100785.75;5017883;28;20894;-77
2022/10/31 08:03:06;;;;;;;12.03;4.53;;;;;;;13.43;79.98;100785.31;5023433;28;20487;-77
2022/10/31 08:05:32;;;;;;;8.38;4.45;;;;;;;13.52;79.83;100786.50;5027179;28;20407;-77
2022/10/31 08:07:58;;;;;;;9.75;4.22;;;;;;;13.55;79.92;100781.59;5029479;28;20407;-78
2022/10/31 08:10:24;;;;;;;10.47;4.40;;;;;;;13.58;79.87;100783.81;5017133;28;20929;-77
2022/10/31 08:12:58;;;;;;;9.60;4.53;;;;;;;13.65;79.73;100781.72;5014540;28;20415;-78
2022/10/31 08:15:23;;;;;;;10.90;4.47;;;;;;;13.69;79.97;100780.13;5022165;28;20420;-77
2022/10/31 08:17:49;;;;;;;9.20;4.53;;;;;;;13.71;79.96;100778.78;5037215;28;20403;-77
2022/10/31 08:20:14;;;;;;;7.97;4.30;;;;;;;13.74;79.44;100778.25;5017929;28;20442;-79
2022/10/31 08:22:39;;;;;;;9.80;4.10;;;;;;;13.77;79.59;100782.34;5016961;28;20899;-77
2022/10/31 08:25:05;;;;;;;5.88;4.18;;;;;;;13.80;79.73;100782.66;5029423;28;20429;-78
2022/10/31 08:27:30;;;;;;;7.03;4.37;;;;;;;13.82;79.76;100782.44;5017960;28;20419;-76
2022/10/31 08:29:56;;;;;;;8.13;4.65;;;;;;;13.88;79.51;100776.75;5025376;28;20411;-76
2022/10/31 08:32:21;;;;;;;6.70;4.63;;;;;;;13.97;79.65;100774.38;5021874;28;20495;-77
2022/10/31 08:34:46;;;;;;;11.47;4.90;;;;;;;14.03;79.60;100785.06;5027266;28;20878;-76
2022/10/31 08:37:11;;;;;;;6.80;4.53;;;;;;;14.05;79.47;100787.53;5024547;28;20471;-76
2022/10/31 08:39:37;;;;;;;9.20;5.33;;;;;;;14.10;79.55;100784.84;5020446;28;20751;-76
2022/10/31 08:42:02;;;;;;;9.07;4.50;;;;;;;14.16;79.84;100781.06;5036221;28;20441;-76
2022/10/31 08:44:27;;;;;;;8.27;4.43;;;;;;;14.21;79.66;100780.31;5047815;28;20411;-76
2022/10/31 08:46:53;;;;;;;9.93;4.73;;;;;;;14.29;79.67;100777.09;5048032;28;20752;-76
2022/10/31 08:49:18;;;;;;;9.05;4.20;;;;;;;14.42;79.10;100773.97;5059984;28;20419;-76
2022/10/31 08:51:47;;;;;;;5.38;3.85;;;;;;;14.51;78.80;100772.38;5042982;28;20389;-76
2022/10/31 08:54:12;;;;;;;6.33;3.93;;;;;;;14.49;78.83;100775.34;5050248;28;20531;-77
2022/10/31 08:56:38;;;;;;;6.70;4.13;;;;;;;14.54;79.14;100782.75;5050368;28;20410;-77
2022/10/31 08:59:03;;;;;;;7.93;4.30;;;;;;;14.59;79.16;100773.78;5044799;28;20818;-77
2022/10/31 09:01:28;;;;;;;9.43;4.50;;;;;;;14.63;79.02;100777.63;5035839;28;20407;-77
2022/10/31 09:03:54;;;;;;;10.33;4.33;;;;;;;14.71;78.71;100764.31;5047332;28;20803;-77
2022/10/31 09:06:19;;;;;;;7.80;4.20;;;;;;;14.83;78.49;100773.09;5054412;28;20439;-77
2022/10/31 09:08:44;;;;;;;7.07;4.10;;;;;;;14.90;78.28;100761.94;5035920;28;20424;-77
2022/10/31 09:11:09;;;;;;;6.57;3.70;;;;;;;14.96;78.22;100763.59;5043506;28;20477;-77
2022/10/31 09:13:35;;;;;;;6.95;4.15;;;;;;;15.01;77.78;100761.75;5050351;28;20444;-77
2022/10/31 09:16:00;;;;;;;6.93;3.90;;;;;;;15.10;77.72;100755.75;5052192;28;20992;-77
2022/10/31 09:18:27;;;;;;;6.00;4.70;;;;;;;15.19;77.86;100762.31;5039541;28;20389;-77
2022/10/31 09:20:53;;;;;;;7.72;4.18;;;;;;;15.38;77.66;100763.47;5052965;28;20397;-77
2022/10/31 09:23:21;;;;;;;6.90;4.55;;;;;;;15.64;76.63;100753.47;5046895;28;20889;-77
2022/10/31 09:25:48;;;;;;;7.00;4.27;;;;;;;15.70;76.24;100749.66;5051093;28;20382;-77
2022/10/31 09:28:15;;;;;;;9.88;4.32;;;;;;;15.63;76.28;100749.09;5048309;28;20418;-77
2022/10/31 09:30:40;;;;;;;12.63;4.18;;;;;;;15.67;76.02;100752.94;5040422;28;20400;-78
2022/10/31 09:33:10;;;;;;;10.43;4.23;;;;;;;15.73;75.86;100751.84;5055932;28;20787;-77
2022/10/31 09:35:36;;;;;;;7.22;4.00;;;;;;;15.84;75.61;100748.84;5034967;28;20398;-76
2022/10/31 09:38:03;;;;;;;10.40;4.43;;;;;;;16.10;74.82;100745.00;5052751;28;20885;-77
2022/10/31 09:40:56;;;;;;;8.77;4.30;;;;;;;16.63;72.99;100742.75;5051518;28;20422;-77
2022/10/31 09:43:49;;;;;;;11.30;4.10;;;;;;;16.95;72.00;100736.94;5031944;28;20453;-79
2022/10/31 09:46:30;;;;;;;10.20;4.35;;;;;;;17.09;71.30;100749.72;5065097;28;20487;-81
2022/10/31 09:49:23;;;;;;;9.47;4.30;;;;;;;16.96;71.52;100744.03;5067528;28;20500;-77
2022/10/31 09:52:04;;;;;;;6.53;4.18;;;;;;;16.90;72.21;100747.88;5038372;28;20385;-77
2022/10/31 09:54:35;;;;;;;8.73;4.63;;;;;;;17.06;71.75;100739.31;5051864;28;20389;-77
2022/10/31 09:57:02;;;;;;;7.18;4.13;;;;;;;17.30;70.85;100736.75;5018644;28;20422;-77
2022/10/31 09:59:34;;;;;;;6.35;4.53;;;;;;;17.56;69.85;100740.19;5025709;28;20887;-78
2022/10/31 10:02:24;;;;;;;11.20;4.45;;;;;;;17.51;70.18;100743.75;5045350;28;20746;-78
2022/10/31 10:05:01;;;;;;;5.78;3.63;;;;;;;17.67;69.63;100739.00;5045556;28;20405;-79
2022/10/31 10:07:30;;;;;;;5.35;4.40;;;;;;;17.64;69.67;100728.63;5020589;28;20479;-78
2022/10/31 10:09:56;;;;;;;5.68;3.92;;;;;;;17.51;69.94;100727.31;5063391;28;20409;-79
2022/10/31 10:12:40;;;;;;;6.35;4.07;;;;;;;17.66;69.46;100720.91;5048042;28;20403;-79
2022/10/31 10:15:37;;;;;;;7.23;4.33;;;;;;;17.77;68.79;100725.25;5059815;28;20755;-81
2022/10/31 10:18:11;;;;;;;5.93;3.97;;;;;;;17.51;68.97;100721.84;5043173;28;20411;-79
2022/10/31 10:20:55;;;;;;;6.95;4.25;;;;;;;17.24;70.07;100715.97;5043275;28;20875;-80
2022/10/31 10:23:32;;;;;;;8.73;4.40;;;;;;;17.04;71.00;100711.41;5037612;28;20385;-78
2022/10/31 10:26:18;;;;;;;7.28;4.63;;;;;;;16.96;71.43;100712.00;5039908;28;20413;-78
2022/10/31 10:28:48;;;;;;;7.10;4.17;;;;;;;16.89;71.85;100713.41;5033002;28;20487;-79
2022/10/31 10:31:22;;;;;;;7.30;4.38;;;;;;;16.88;72.20;100729.00;5023793;28;20396;-78
2022/10/31 10:34:11;;;;;;;9.43;3.90;;;;;;;16.89;72.05;100716.16;5049881;28;20425;-77
2022/10/31 10:36:44;;;;;;;7.03;4.30;;;;;;;16.89;72.12;100713.41;5049765;28;20484;-77
2022/10/31 10:39:17;;;;;;;5.57;4.47;;;;;;;16.87;72.53;100704.66;5043740;28;20425;-77
2022/10/31 10:47:40;;;;;;;11.35;4.35;;;;;;;16.92;72.62;100702.72;5052393;28;21003;-77
2022/10/31 10:50:18;;;;;;;6.60;4.07;;;;;;;16.97;72.27;100704.59;5050785;28;20408;-77
2022/10/31 10:52:49;;;;;;;7.13;3.97;;;;;;;16.95;72.46;100704.06;5023348;28;20409;-76
2022/10/31 10:55:33;;;;;;;11.82;3.75;;;;;;;16.97;72.43;100704.59;5046065;28;20760;-77
2022/10/31 10:58:03;;;;;;;5.60;3.78;;;;;;;16.98;72.36;100698.84;5034569;28;20413;-77
2022/10/31 11:00:35;;;;;;;10.43;3.92;;;;;;;16.98;72.34;100692.56;5043679;28;20430;-77
2022/10/31 11:03:01;;;;;;;6.25;4.18;;;;;;;17.03;72.44;100679.66;5051119;28;20473;-77
2022/10/31 11:05:44;;;;;;;9.50;4.17;;;;;;;17.10;72.21;100679.34;5049799;28;20513;-77
2022/10/31 11:08:10;;;;;;;8.25;3.70;;;;;;;17.12;72.51;100680.69;5046136;28;20413;-77
2022/10/31 11:10:36;;;;;;;10.50;4.20;;;;;;;17.13;72.47;100674.13;5047908;28;20406;-77
2022/10/31 11:13:15;;;;;;;7.93;4.47;;;;;;;17.19;72.88;100668.63;5011130;28;20553;-77
2022/10/31 11:15:59;;;;;;;10.60;4.07;;;;;;;17.24;73.04;100657.63;5044746;28;20441;-77
2022/10/31 11:18:28;;;;;;;12.60;5.07;;;;;;;17.24;72.86;100663.09;5036084;28;20396;-77
2022/10/31 11:20:56;;;;;;;6.43;4.18;;;;;;;17.26;72.63;100666.38;5040693;28;20416;-77
2022/10/31 11:23:23;;;;;;;8.85;4.43;;;;;;;17.27;72.33;100662.53;5031782;28;20412;-77
2022/10/31 11:25:52;;;;;;;9.00;4.35;;;;;;;17.23;72.33;100655.97;5046866;28;20410;-77
2022/10/31 11:28:17;;;;;;;7.80;4.47;;;;;;;17.19;72.55;100646.72;5044782;28;20444;-78
2022/10/31 11:30:53;;;;;;;7.40;4.18;;;;;;;17.20;72.46;100649.16;5016086;28;20597;-77
2022/10/31 11:33:45;;;;;;;9.30;4.63;;;;;;;17.20;72.46;100659.28;5038788;28;20415;-77
2022/10/31 11:36:32;;;;;;;6.00;4.35;;;;;;;17.24;72.00;100649.41;5031827;28;20397;-78
2022/10/31 11:39:01;;;;;;;9.80;4.45;;;;;;;17.27;71.98;100652.41;5051531;28;20389;-77
2022/10/31 11:41:31;;;;;;;9.95;4.78;;;;;;;17.32;71.85;100651.56;5051360;28;20405;-77